createdAt,value
2019-06-01T00:00:48.938Z,82.60
2019-06-01T00:03:19.989Z,82.50
2019-06-01T00:05:49.431Z,82.80
2019-06-01T00:08:18.866Z,82.60
2019-06-01T00:10:49.451Z,82.60
2019-06-01T00:13:19.139Z,82.40
2019-06-01T00:15:48.585Z,82.50
2019-06-01T00:18:19.046Z,82.90
2019-06-01T00:20:48.689Z,82.90
2019-06-01T00:23:19.076Z,82.70
2019-06-01T00:25:50.135Z,82.50
2019-06-01T00:28:21.035Z,82.70
2019-06-01T00:30:50.484Z,82.80
2019-06-01T00:33:19.977Z,83.00
2019-06-01T00:35:49.552Z,82.90
2019-06-01T00:38:19.888Z,83.00
2019-06-01T00:40:49.938Z,83.30
2019-06-01T00:43:19.473Z,83.20
2019-06-01T00:45:48.841Z,83.40
2019-06-01T00:48:18.246Z,83.80
2019-06-01T00:50:49.023Z,83.70
2019-06-01T00:53:20.491Z,83.70
2019-06-01T00:55:51.610Z,83.60
2019-06-01T00:58:21.029Z,83.60
2019-06-01T01:00:52.053Z,83.70
2019-06-01T01:03:21.550Z,83.70
2019-06-01T01:05:51.080Z,83.60
2019-06-01T01:08:20.564Z,83.50
2019-06-01T01:10:51.088Z,83.60
2019-06-01T01:13:22.173Z,84.00
2019-06-01T01:15:51.604Z,84.20
2019-06-01T01:18:20.991Z,84.30
2019-06-01T01:20:50.419Z,84.40
2019-06-01T01:23:19.883Z,84.60
2019-06-01T01:25:50.410Z,84.70
2019-06-01T01:28:23.850Z,84.80
2019-06-01T01:31:06.666Z,84.90
2019-06-01T01:33:23.189Z,84.70
2019-06-01T01:35:54.095Z,84.90
2019-06-01T01:38:24.435Z,84.70
2019-06-01T01:40:56.172Z,84.60
2019-06-01T01:43:27.654Z,84.90
2019-06-01T01:46:03.988Z,85.00
2019-06-01T01:48:34.364Z,84.90
2019-06-01T01:51:04.713Z,84.60
2019-06-01T01:53:34.230Z,84.50
2019-06-01T01:56:03.734Z,84.70
2019-06-01T01:58:34.754Z,84.90
2019-06-01T02:01:20.846Z,85.10
2019-06-01T02:03:35.404Z,85.10
2019-06-01T02:06:04.986Z,85.20
2019-06-01T02:08:34.432Z,85.00
2019-06-01T02:11:03.930Z,84.80
2019-06-01T02:13:33.308Z,85.00
2019-06-01T02:16:02.748Z,84.60
2019-06-01T02:18:33.200Z,84.80
2019-06-01T02:21:02.728Z,85.10
2019-06-01T02:23:32.168Z,85.40
2019-06-01T02:26:01.617Z,85.60
2019-06-01T02:28:31.101Z,85.70
2019-06-01T02:31:01.928Z,85.70
2019-06-01T02:33:31.525Z,85.50
2019-06-01T02:36:03.032Z,85.50
2019-06-01T02:38:32.081Z,85.70
2019-06-01T02:41:03.270Z,85.60
2019-06-01T02:43:33.135Z,85.70
2019-06-01T02:46:03.373Z,85.80
2019-06-01T02:48:34.677Z,85.90
2019-06-01T02:51:05.403Z,86.10
2019-06-01T02:53:36.965Z,86.00
2019-06-01T02:56:06.388Z,86.20
2019-06-01T02:58:35.836Z,86.40
2019-06-01T03:01:30.445Z,86.70
2019-06-01T03:04:01.304Z,86.60
2019-06-01T03:06:33.067Z,86.60
2019-06-01T03:09:06.807Z,86.90
2019-06-01T03:11:37.654Z,87.10
2019-06-01T03:14:09.017Z,87.20
2019-06-01T03:16:40.738Z,87.20
2019-06-01T03:19:10.262Z,87.20
2019-06-01T03:21:41.067Z,87.30
2019-06-01T03:24:13.282Z,87.30
2019-06-01T03:26:45.454Z,87.50
2019-06-01T03:29:18.916Z,87.50
2019-06-01T03:31:48.472Z,87.60
2019-06-01T03:34:18.269Z,87.80
2019-06-01T03:36:47.819Z,87.90
2019-06-01T03:39:17.337Z,87.80
2019-06-01T03:41:46.773Z,87.60
2019-06-01T03:44:16.318Z,87.50
2019-06-01T03:46:48.801Z,87.40
2019-06-01T03:49:22.861Z,87.80
2019-06-01T03:51:52.286Z,87.90
2019-06-01T03:54:22.685Z,87.90
2019-06-01T03:56:52.061Z,87.90
2019-06-01T03:59:21.492Z,88.10
2019-06-01T04:01:50.942Z,88.00
2019-06-01T04:04:20.409Z,88.20
2019-06-01T04:06:50.809Z,88.30
2019-06-01T04:09:20.245Z,88.30
2019-06-01T04:11:49.678Z,88.20
2019-06-01T04:14:19.118Z,88.20
2019-06-01T04:16:48.558Z,88.50
2019-06-01T04:19:18.009Z,88.80
2019-06-01T04:21:48.152Z,88.80
2019-06-01T04:24:17.668Z,88.70
2019-06-01T04:26:47.109Z,88.80
2019-06-01T04:29:16.612Z,88.80
2019-06-01T04:31:46.054Z,88.90
2019-06-01T04:34:17.950Z,89.00
2019-06-01T04:36:49.254Z,88.90
2019-06-01T04:39:20.273Z,88.80
2019-06-01T04:41:49.729Z,89.30
2019-06-01T04:44:20.159Z,89.00
2019-06-01T04:46:49.597Z,88.90
2019-06-01T04:49:18.970Z,88.80
2019-06-01T04:51:48.412Z,88.90
2019-06-01T04:54:17.861Z,88.80
2019-06-01T04:56:47.466Z,88.70
2019-06-01T04:59:16.943Z,88.60
2019-06-01T05:01:46.430Z,87.90
2019-06-01T05:04:15.886Z,87.60
2019-06-01T05:06:45.303Z,87.60
2019-06-01T05:09:15.755Z,87.30
2019-06-01T05:11:46.418Z,87.10
2019-06-01T05:14:16.558Z,86.80
2019-06-01T05:16:46.169Z,86.70
2019-06-01T05:19:16.673Z,86.40
2019-06-01T05:21:46.253Z,86.60
2019-06-01T05:24:16.913Z,86.40
2019-06-01T05:26:47.549Z,86.60
2019-06-01T05:29:18.449Z,86.50
2019-06-01T05:31:47.879Z,86.50
2019-06-01T05:34:18.383Z,86.40
2019-06-01T05:36:47.996Z,86.40
2019-06-01T05:39:18.882Z,86.00
2019-06-01T05:41:48.259Z,85.80
2019-06-01T05:44:19.778Z,85.60
2019-06-01T05:47:02.239Z,85.20
2019-06-01T05:49:32.601Z,85.00
2019-06-01T05:52:06.447Z,84.50
2019-06-01T05:54:58.385Z,84.40
2019-06-01T05:57:25.049Z,84.00
2019-06-01T06:00:00.325Z,84.40
2019-06-01T06:02:30.697Z,84.50
2019-06-01T06:05:01.088Z,84.40
2019-06-01T06:07:36.235Z,84.20
2019-06-01T06:10:07.080Z,84.20
2019-06-01T06:12:40.286Z,83.80
2019-06-01T06:15:13.478Z,83.90
2019-06-01T06:17:44.831Z,84.20
2019-06-01T06:20:14.375Z,83.90
2019-06-01T06:22:43.831Z,83.30
2019-06-01T06:25:15.062Z,83.10
2019-06-01T06:27:45.747Z,82.90
2019-06-01T06:30:16.983Z,82.50
2019-06-01T06:32:46.394Z,82.10
2019-06-01T06:35:17.436Z,82.10
2019-06-01T06:37:46.915Z,80.70
2019-06-01T06:40:16.665Z,80.10
2019-06-01T06:42:46.035Z,80.10
2019-06-01T06:45:16.595Z,79.60
2019-06-01T06:47:46.101Z,79.70
2019-06-01T06:50:17.518Z,79.50
2019-06-01T06:52:47.173Z,79.00
2019-06-01T06:55:17.716Z,78.60
2019-06-01T06:57:48.016Z,78.70
2019-06-01T07:00:18.552Z,78.60
2019-06-01T07:02:47.979Z,77.90
2019-06-01T07:05:23.475Z,77.20
2019-06-01T07:07:52.992Z,77.60
2019-06-01T07:10:22.449Z,77.10
2019-06-01T07:12:51.947Z,77.20
2019-06-01T07:15:21.483Z,78.20
2019-06-01T07:17:50.929Z,77.60
2019-06-01T07:20:21.464Z,77.70
2019-06-01T07:22:52.342Z,77.50
2019-06-01T07:25:21.986Z,76.60
2019-06-01T07:27:51.414Z,75.80
2019-06-01T07:30:22.104Z,76.00
2019-06-01T07:32:51.637Z,75.70
2019-06-01T07:35:22.267Z,76.20
2019-06-01T07:37:51.842Z,76.00
2019-06-01T07:40:22.829Z,75.50
2019-06-01T07:42:53.410Z,75.60
2019-06-01T07:45:24.846Z,75.10
2019-06-01T07:47:54.341Z,75.10
2019-06-01T07:50:23.962Z,74.70
2019-06-01T07:52:53.365Z,74.20
2019-06-01T07:55:23.533Z,73.80
2019-06-01T07:57:53.024Z,74.20
2019-06-01T08:00:24.019Z,74.00
2019-06-01T08:02:57.162Z,74.50
2019-06-01T08:05:28.057Z,74.30
2019-06-01T08:07:57.716Z,74.50
2019-06-01T08:10:29.524Z,74.10
2019-06-01T08:12:59.194Z,73.50
2019-06-01T08:15:29.836Z,73.30
2019-06-01T08:18:00.337Z,73.30
2019-06-01T08:20:32.142Z,72.50
2019-06-01T08:23:01.699Z,71.60
2019-06-01T08:25:31.134Z,72.00
2019-06-01T08:28:01.687Z,71.40
2019-06-01T08:30:31.064Z,71.50
2019-06-01T08:33:06.226Z,72.00
2019-06-01T08:35:37.689Z,71.40
2019-06-01T08:38:07.194Z,70.60
2019-06-01T08:40:37.953Z,70.70
2019-06-01T08:43:13.398Z,70.50
2019-06-01T08:45:46.558Z,70.60
2019-06-01T08:48:16.215Z,70.30
2019-06-01T08:50:46.284Z,70.30
2019-06-01T08:53:15.880Z,69.80
2019-06-01T08:55:45.457Z,70.00
2019-06-01T08:58:17.155Z,69.80
2019-06-01T09:00:48.027Z,70.70
2019-06-01T09:03:19.060Z,69.90
2019-06-01T09:05:51.049Z,69.90
2019-06-01T09:08:23.729Z,69.70
2019-06-01T09:10:52.784Z,69.80
2019-06-01T09:13:22.448Z,69.80
2019-06-01T09:15:51.952Z,69.30
2019-06-01T09:18:21.447Z,69.00
2019-06-01T09:20:50.909Z,68.40
2019-06-01T09:23:20.495Z,68.70
2019-06-01T09:25:51.498Z,68.50
2019-06-01T09:28:20.999Z,67.50
2019-06-01T09:30:53.489Z,67.30
2019-06-01T09:33:23.150Z,67.50
2019-06-01T09:35:56.252Z,67.20
2019-06-01T09:38:25.290Z,67.80
2019-06-01T09:40:54.799Z,66.50
2019-06-01T09:43:31.044Z,66.20
2019-06-01T09:45:57.289Z,66.80
2019-06-01T09:48:29.367Z,66.90
2019-06-01T09:51:01.185Z,66.30
2019-06-01T09:53:32.932Z,67.00
2019-06-01T09:56:13.903Z,66.60
2019-06-01T09:58:43.368Z,65.30
2019-06-01T10:01:30.031Z,65.20
2019-06-01T10:03:57.991Z,64.90
2019-06-01T10:06:32.448Z,64.80
2019-06-01T10:09:04.760Z,65.10
2019-06-01T10:11:34.361Z,64.40
2019-06-01T10:14:04.874Z,64.30
2019-06-01T10:16:34.580Z,64.00
2019-06-01T10:19:05.292Z,64.30
2019-06-01T10:21:38.508Z,63.90
2019-06-01T10:24:09.497Z,62.80
2019-06-01T10:26:39.573Z,61.80
2019-06-01T10:29:09.119Z,61.10
2019-06-01T10:31:41.666Z,60.80
2019-06-01T10:34:11.092Z,61.00
2019-06-01T10:36:43.679Z,60.10
2019-06-01T10:39:19.433Z,60.50
2019-06-01T10:41:47.440Z,60.20
2019-06-01T10:44:20.144Z,60.60
2019-06-01T10:47:05.581Z,61.10
2019-06-01T10:49:35.928Z,60.00
2019-06-01T10:52:05.660Z,59.90
2019-06-01T10:54:36.149Z,60.00
2019-06-01T10:57:05.780Z,59.90
2019-06-01T10:59:36.283Z,60.50
2019-06-01T11:02:06.801Z,59.50
2019-06-01T11:04:37.056Z,59.80
2019-06-01T11:07:08.225Z,59.40
2019-06-01T11:09:38.971Z,58.70
2019-06-01T11:12:08.451Z,58.40
2019-06-01T11:14:39.005Z,58.70
2019-06-01T11:17:09.483Z,57.90
2019-06-01T11:19:40.009Z,57.00
2019-06-01T11:22:10.463Z,55.30
2019-06-01T11:24:39.971Z,55.00
2019-06-01T11:27:11.555Z,54.70
2019-06-01T11:29:49.744Z,54.90
2019-06-01T11:32:27.404Z,54.40
2019-06-01T11:34:56.930Z,53.90
2019-06-01T11:37:27.424Z,52.70
2019-06-01T11:39:56.904Z,51.50
2019-06-01T11:42:26.586Z,51.50
2019-06-01T11:44:56.604Z,51.20
2019-06-01T11:47:28.114Z,49.80
2019-06-01T11:50:01.891Z,50.80
2019-06-01T11:52:34.859Z,49.90
2019-06-01T11:55:08.992Z,50.50
2019-06-01T11:57:39.521Z,50.60
2019-06-01T12:00:12.343Z,50.80
2019-06-01T12:02:41.955Z,49.80
2019-06-01T12:05:12.117Z,50.10
2019-06-01T12:07:41.968Z,48.90
2019-06-01T12:10:17.502Z,48.00
2019-06-01T12:12:59.601Z,47.90
2019-06-01T12:15:32.384Z,48.50
2019-06-01T12:18:02.004Z,48.20
2019-06-01T12:20:31.449Z,48.10
2019-06-01T12:23:02.940Z,48.10
2019-06-01T12:25:32.537Z,49.10
2019-06-01T12:28:02.043Z,49.40
2019-06-01T12:30:31.534Z,48.80
2019-06-01T12:33:02.683Z,47.30
2019-06-01T12:35:33.059Z,47.00
2019-06-01T12:38:06.702Z,46.40
2019-06-01T12:40:34.627Z,45.70
2019-06-01T12:43:04.350Z,45.10
2019-06-01T12:45:33.987Z,44.30
2019-06-01T12:48:03.654Z,43.90
2019-06-01T12:50:33.261Z,43.00
2019-06-01T12:53:02.705Z,42.60
2019-06-01T12:55:33.696Z,42.30
2019-06-01T12:58:03.242Z,42.70
2019-06-01T13:00:32.747Z,44.10
2019-06-01T13:03:07.561Z,43.70
2019-06-01T13:05:34.589Z,42.00
2019-06-01T13:08:05.585Z,41.40
2019-06-01T13:10:35.036Z,41.10
2019-06-01T13:13:05.590Z,40.40
2019-06-01T13:15:35.126Z,40.30
2019-06-01T13:18:06.376Z,39.90
2019-06-01T13:20:39.700Z,39.80
2019-06-01T13:23:09.202Z,39.70
2019-06-01T13:25:38.766Z,39.30
2019-06-01T13:28:08.190Z,38.20
2019-06-01T13:30:38.634Z,37.80
2019-06-01T13:33:09.676Z,37.20
2019-06-01T13:35:39.045Z,38.30
2019-06-01T13:38:12.389Z,39.30
2019-06-01T13:40:39.621Z,38.40
2019-06-01T13:43:09.262Z,38.70
2019-06-01T13:45:38.679Z,37.20
2019-06-01T13:48:08.129Z,38.20
2019-06-01T13:50:37.618Z,38.10
2019-06-01T13:53:07.252Z,36.60
2019-06-01T13:55:36.722Z,34.80
2019-06-01T13:58:06.241Z,33.70
2019-06-01T14:00:36.148Z,34.00
2019-06-01T14:03:05.682Z,34.90
2019-06-01T14:05:37.145Z,34.40
2019-06-01T14:08:06.636Z,35.50
2019-06-01T14:10:38.162Z,34.70
2019-06-01T14:13:07.751Z,33.40
2019-06-01T14:15:37.261Z,33.20
2019-06-01T14:18:06.913Z,33.30
2019-06-01T14:20:37.296Z,35.60
2019-06-01T14:23:06.742Z,38.10
2019-06-01T14:25:36.352Z,36.70
2019-06-01T14:28:06.720Z,35.20
2019-06-01T14:30:37.555Z,34.90
2019-06-01T14:33:06.986Z,33.00
2019-06-01T14:35:36.547Z,32.90
2019-06-01T14:38:06.073Z,32.50
2019-06-01T14:40:35.513Z,33.00
2019-06-01T14:43:05.271Z,32.80
2019-06-01T14:45:34.794Z,32.30
2019-06-01T14:48:04.487Z,30.90
2019-06-01T14:50:34.092Z,31.40
2019-06-01T14:53:03.739Z,31.40
2019-06-01T14:55:33.174Z,32.20
2019-06-01T14:58:02.733Z,32.40
2019-06-01T15:00:32.588Z,32.70
2019-06-01T15:03:02.341Z,32.20
2019-06-01T15:05:31.837Z,31.40
2019-06-01T15:08:01.336Z,30.50
2019-06-01T15:10:30.838Z,30.00
2019-06-01T15:13:03.071Z,29.70
2019-06-01T15:15:32.648Z,30.20
2019-06-01T15:18:05.160Z,30.90
2019-06-01T15:20:34.128Z,33.20
2019-06-01T15:23:04.152Z,34.10
2019-06-01T15:25:33.605Z,35.60
2019-06-01T15:28:04.013Z,36.20
2019-06-01T15:30:33.733Z,37.00
2019-06-01T15:33:03.449Z,37.20
2019-06-01T15:35:33.447Z,37.40
2019-06-01T15:38:04.699Z,38.60
2019-06-01T15:40:34.900Z,39.20
2019-06-01T15:43:04.319Z,39.70
2019-06-01T15:45:33.901Z,40.20
2019-06-01T15:48:04.658Z,41.00
2019-06-01T15:50:36.742Z,41.10
2019-06-01T15:53:06.236Z,41.40
2019-06-01T15:55:35.723Z,41.90
2019-06-01T15:58:05.272Z,42.30
2019-06-01T16:00:34.865Z,42.70
2019-06-01T16:03:04.713Z,42.20
2019-06-01T16:05:34.162Z,41.80
2019-06-01T16:08:04.025Z,42.20
2019-06-01T16:10:34.404Z,41.90
2019-06-01T16:13:04.486Z,42.30
2019-06-01T16:15:34.111Z,42.30
2019-06-01T16:18:04.261Z,42.60
2019-06-01T16:20:34.743Z,42.30
2019-06-01T16:23:05.249Z,41.00
2019-06-01T16:25:34.887Z,41.00
2019-06-01T16:28:05.698Z,40.80
2019-06-01T16:30:35.438Z,41.00
2019-06-01T16:33:06.014Z,41.30
2019-06-01T16:35:37.825Z,40.70
2019-06-01T16:38:08.250Z,40.40
2019-06-01T16:40:39.621Z,40.60
2019-06-01T16:43:09.716Z,39.80
2019-06-01T16:45:39.068Z,38.50
2019-06-01T16:48:11.965Z,38.20
2019-06-01T16:50:41.356Z,38.30
2019-06-01T16:53:14.841Z,38.70
2019-06-01T16:55:45.853Z,39.40
2019-06-01T16:58:15.465Z,40.10
2019-06-01T17:00:47.018Z,40.40
2019-06-01T17:03:16.619Z,40.40
2019-06-01T17:05:47.165Z,40.10
2019-06-01T17:08:19.176Z,40.20
2019-06-01T17:10:50.145Z,40.50
2019-06-01T17:13:19.709Z,41.00
2019-06-01T17:15:49.294Z,41.60
2019-06-01T17:18:22.124Z,42.10
2019-06-01T17:20:53.983Z,42.20
2019-06-01T17:23:27.603Z,42.20
2019-06-01T17:26:04.614Z,42.70
2019-06-01T17:28:35.342Z,42.50
2019-06-01T17:31:08.338Z,42.30
2019-06-01T17:33:37.929Z,43.30
2019-06-01T17:36:10.490Z,42.80
2019-06-01T17:38:39.964Z,43.00
2019-06-01T17:41:09.564Z,43.30
2019-06-01T17:43:39.034Z,43.40
2019-06-01T17:46:10.233Z,43.80
2019-06-01T17:48:41.838Z,43.70
2019-06-01T17:51:14.256Z,43.40
2019-06-01T17:53:55.794Z,44.00
2019-06-01T17:56:27.183Z,43.50
2019-06-01T17:58:57.795Z,44.00
2019-06-01T18:01:27.344Z,44.40
2019-06-01T18:04:01.586Z,44.50
2019-06-01T18:06:31.740Z,44.20
2019-06-01T18:09:02.034Z,44.00
2019-06-01T18:11:34.581Z,44.50
2019-06-01T18:14:06.137Z,44.90
2019-06-01T18:16:35.714Z,45.20
2019-06-01T18:19:10.422Z,45.60
2019-06-01T18:21:40.960Z,45.00
2019-06-01T18:24:11.060Z,45.30
2019-06-01T18:26:44.141Z,45.20
2019-06-01T18:29:16.384Z,45.60
2019-06-01T18:31:48.447Z,45.70
2019-06-01T18:34:17.999Z,45.90
2019-06-01T18:36:51.669Z,46.00
2019-06-01T18:39:47.652Z,46.10
2019-06-01T18:42:29.340Z,46.40
2019-06-01T18:45:03.484Z,46.30
2019-06-01T18:47:37.604Z,46.50
2019-06-01T18:50:17.000Z,46.70
2019-06-01T18:52:50.371Z,47.00
2019-06-01T18:55:19.738Z,46.90
2019-06-01T18:57:52.111Z,47.00
2019-06-01T19:00:23.565Z,47.20
2019-06-01T19:02:55.741Z,47.10
2019-06-01T19:05:28.018Z,47.50
2019-06-01T19:07:57.892Z,48.40
2019-06-01T19:10:33.318Z,48.00
2019-06-01T19:13:05.667Z,48.20
2019-06-01T19:15:38.119Z,48.90
2019-06-01T19:18:14.491Z,48.60
2019-06-01T19:20:44.073Z,49.20
2019-06-01T19:23:14.791Z,49.30
2019-06-01T19:25:44.398Z,50.20
2019-06-01T19:28:25.255Z,50.40
2019-06-01T19:31:03.755Z,50.20
2019-06-01T19:33:37.373Z,50.20
2019-06-01T19:36:08.924Z,51.20
2019-06-01T19:38:43.585Z,51.60
2019-06-01T19:41:43.710Z,52.20
2019-06-01T19:44:07.590Z,52.50
2019-06-01T19:46:38.063Z,53.30
2019-06-01T19:49:08.507Z,53.90
2019-06-01T19:51:41.041Z,54.70
2019-06-01T19:54:10.870Z,54.90
2019-06-01T19:56:41.561Z,55.40
2019-06-01T19:59:13.850Z,56.00
2019-06-01T20:01:43.327Z,56.20
2019-06-01T20:04:14.342Z,56.60
2019-06-01T20:06:43.865Z,56.80
2019-06-01T20:09:13.393Z,57.30
2019-06-01T20:11:58.639Z,57.90
2019-06-01T20:14:16.474Z,58.20
2019-06-01T20:16:46.046Z,58.50
2019-06-01T20:19:15.689Z,58.80
2019-06-01T20:21:46.325Z,59.10
2019-06-01T20:24:15.858Z,59.20
2019-06-01T20:26:49.387Z,59.40
2019-06-01T20:29:22.855Z,59.90
2019-06-01T20:32:00.842Z,60.20
2019-06-01T20:34:30.406Z,60.80
2019-06-01T20:37:00.197Z,61.20
2019-06-01T20:42:52.576Z,61.70
2019-06-01T20:45:22.893Z,62.20
2019-06-01T20:47:52.607Z,62.30
2019-06-01T20:50:23.231Z,62.70
2019-06-01T20:52:52.677Z,63.00
2019-06-01T20:55:25.136Z,63.40
2019-06-01T20:57:54.955Z,63.60
2019-06-01T21:00:25.310Z,64.10
2019-06-01T21:02:55.687Z,64.00
2019-06-01T21:05:26.351Z,64.60
2019-06-01T21:07:58.336Z,64.90
2019-06-01T21:10:27.759Z,65.00
2019-06-01T21:12:57.893Z,65.30
2019-06-01T21:15:28.320Z,65.40
2019-06-01T21:17:58.028Z,66.00
2019-06-01T21:20:39.028Z,66.40
2019-06-01T21:23:10.813Z,66.40
2019-06-01T21:25:42.905Z,66.80
2019-06-01T21:28:22.521Z,67.00
2019-06-01T21:30:57.101Z,67.40
2019-06-01T21:33:29.986Z,67.90
2019-06-01T21:35:59.562Z,68.00
2019-06-01T21:38:30.035Z,69.30
2019-06-01T21:40:59.520Z,68.60
2019-06-01T21:43:35.138Z,68.20
2019-06-01T21:46:06.502Z,68.50
2019-06-01T21:48:36.346Z,68.40
2019-06-01T21:51:06.658Z,68.10
2019-06-01T21:53:40.398Z,67.60
2019-06-01T21:56:10.475Z,67.30
2019-06-01T21:58:42.556Z,67.50
2019-06-01T22:01:16.368Z,67.60
2019-06-01T22:03:49.762Z,67.10
2019-06-01T22:06:21.229Z,66.90
2019-06-01T22:08:52.750Z,67.40
2019-06-01T22:11:23.368Z,67.80
2019-06-01T22:13:53.310Z,68.60
2019-06-01T22:16:23.699Z,69.20
2019-06-01T22:18:57.082Z,69.60
2019-06-01T22:21:28.176Z,69.60
2019-06-01T22:23:57.734Z,69.80
2019-06-01T22:26:28.662Z,69.80
2019-06-01T22:28:58.099Z,69.30
2019-06-01T22:31:28.879Z,69.40
2019-06-01T22:34:04.476Z,70.20
2019-06-01T22:36:36.855Z,69.40
2019-06-01T22:39:08.626Z,69.80
2019-06-01T22:41:42.256Z,70.40
2019-06-01T22:44:16.719Z,70.80
2019-06-01T22:46:52.282Z,71.20
2019-06-01T22:49:24.635Z,71.50
2019-06-01T22:51:54.162Z,71.50
2019-06-01T22:54:25.142Z,72.00
2019-06-01T22:56:55.554Z,72.10
2019-06-01T22:59:26.649Z,71.70
2019-06-01T23:01:56.072Z,71.50
2019-06-01T23:04:25.559Z,72.00
2019-06-01T23:06:54.999Z,71.90
2019-06-01T23:09:25.543Z,72.50
2019-06-01T23:11:55.100Z,72.60
2019-06-01T23:14:25.666Z,73.30
2019-06-01T23:16:55.125Z,73.20
2019-06-01T23:19:26.310Z,73.00
2019-06-01T23:21:56.803Z,73.30
2019-06-01T23:24:30.305Z,73.50
2019-06-01T23:27:02.828Z,73.30
2019-06-01T23:29:33.861Z,73.70
2019-06-01T23:32:11.260Z,73.70
2019-06-01T23:34:40.756Z,73.90
2019-06-01T23:37:11.186Z,74.60
2019-06-01T23:39:41.859Z,74.70
2019-06-01T23:42:13.238Z,75.10
2019-06-01T23:44:47.373Z,75.10
2019-06-01T23:47:20.854Z,74.30
2019-06-01T23:49:55.970Z,76.00
2019-06-01T23:52:27.443Z,74.90
2019-06-01T23:54:56.948Z,75.00
2019-06-01T23:57:26.406Z,75.40
2019-06-01T23:59:55.819Z,75.50
